createdAt,value
2023-04-29T00:00:16.299Z,56.90
2023-04-29T00:02:44.737Z,57.10
2023-04-29T00:05:13.571Z,57.20
2023-04-29T00:07:42.114Z,57.50
2023-04-29T00:10:14.766Z,57.60
2023-04-29T00:12:42.959Z,57.80
2023-04-29T00:15:13.054Z,58.00
2023-04-29T00:17:41.154Z,58.20
2023-04-29T00:20:10.691Z,58.30
2023-04-29T00:22:38.801Z,58.50
2023-04-29T00:25:08.165Z,58.60
2023-04-29T00:27:36.278Z,58.80
2023-04-29T00:30:04.877Z,58.80
2023-04-29T00:32:34.756Z,58.90
2023-04-29T00:35:03.045Z,58.90
2023-04-29T00:37:31.087Z,58.90
2023-04-29T00:39:59.185Z,59.10
2023-04-29T00:42:28.269Z,59.10
2023-04-29T00:44:56.377Z,59.20
2023-04-29T00:47:24.474Z,59.20
2023-04-29T00:49:54.260Z,59.30
2023-04-29T00:52:23.895Z,59.40
2023-04-29T00:54:53.607Z,59.50
2023-04-29T00:57:21.956Z,59.60
2023-04-29T00:59:51.376Z,59.60
2023-04-29T01:02:20.609Z,59.60
2023-04-29T01:04:48.892Z,59.70
2023-04-29T01:07:20.158Z,59.80
2023-04-29T01:10:02.911Z,59.90
2023-04-29T01:12:39.669Z,59.90
2023-04-29T01:15:13.480Z,59.90
2023-04-29T01:17:45.372Z,60.00
2023-04-29T01:20:15.126Z,60.10
2023-04-29T01:22:45.040Z,60.10
2023-04-29T01:25:14.509Z,60.10
2023-04-29T01:27:53.765Z,60.30
2023-04-29T01:30:32.601Z,60.40
2023-04-29T01:33:08.682Z,60.50
2023-04-29T01:35:47.715Z,60.50
2023-04-29T01:38:24.748Z,60.60
2023-04-29T01:41:03.390Z,60.60
2023-04-29T01:43:35.315Z,60.80
2023-04-29T01:46:05.920Z,60.90
2023-04-29T01:48:34.369Z,60.90
2023-04-29T01:51:02.755Z,61.00
2023-04-29T01:53:30.850Z,61.10
2023-04-29T01:56:00.263Z,61.30
2023-04-29T01:58:28.446Z,61.20
2023-04-29T02:00:57.051Z,61.40
2023-04-29T02:03:25.286Z,61.40
2023-04-29T02:05:53.410Z,61.40
2023-04-29T02:08:21.492Z,61.50
2023-04-29T02:10:56.089Z,61.60
2023-04-29T02:13:25.672Z,62.50
2023-04-29T02:15:53.790Z,61.80
2023-04-29T02:18:21.854Z,61.80
2023-04-29T02:20:50.985Z,61.80
2023-04-29T02:23:19.092Z,61.90
2023-04-29T02:25:47.738Z,62.00
2023-04-29T02:28:15.825Z,62.00
2023-04-29T02:30:45.886Z,62.10
2023-04-29T02:33:13.978Z,62.20
2023-04-29T02:35:42.166Z,62.20
2023-04-29T02:38:10.203Z,62.20
2023-04-29T02:40:43.217Z,62.30
2023-04-29T02:43:11.917Z,62.50
2023-04-29T02:45:40.556Z,62.40
2023-04-29T02:48:10.132Z,62.40
2023-04-29T02:50:38.250Z,62.40
2023-04-29T02:53:06.330Z,62.20
2023-04-29T02:55:34.390Z,62.30
2023-04-29T02:58:02.905Z,62.20
2023-04-29T03:00:30.980Z,62.00
2023-04-29T03:02:59.150Z,62.10
2023-04-29T03:05:28.647Z,61.90
2023-04-29T03:07:56.745Z,61.80
2023-04-29T03:10:24.837Z,61.70
2023-04-29T03:12:52.898Z,61.70
2023-04-29T03:15:20.994Z,62.40
2023-04-29T03:17:49.451Z,61.60
2023-04-29T03:20:17.552Z,61.40
2023-04-29T03:22:46.978Z,61.40
2023-04-29T03:25:15.039Z,61.40
2023-04-29T03:27:43.205Z,61.40
2023-04-29T03:30:12.122Z,61.40
2023-04-29T03:32:40.714Z,61.30
2023-04-29T03:35:09.506Z,61.30
2023-04-29T03:37:37.556Z,61.40
2023-04-29T03:40:08.446Z,61.30
2023-04-29T03:42:36.535Z,61.30
2023-04-29T03:45:05.169Z,61.30
2023-04-29T03:47:33.277Z,61.20
2023-04-29T03:50:01.411Z,61.20
2023-04-29T03:52:29.557Z,61.30
2023-04-29T03:54:57.862Z,61.20
2023-04-29T03:57:27.334Z,61.60
2023-04-29T03:59:55.534Z,61.20
2023-04-29T04:02:23.762Z,61.30
2023-04-29T04:04:52.005Z,61.40
2023-04-29T04:07:20.142Z,61.30
2023-04-29T04:09:48.333Z,61.40
2023-04-29T04:12:16.404Z,61.40
2023-04-29T04:14:45.849Z,61.40
2023-04-29T04:17:13.915Z,61.30
2023-04-29T04:19:41.950Z,61.30
2023-04-29T04:22:11.633Z,61.40
2023-04-29T04:24:40.967Z,61.40
2023-04-29T04:27:09.383Z,61.40
2023-04-29T04:29:38.174Z,61.50
2023-04-29T04:32:07.958Z,61.50
2023-04-29T04:34:36.049Z,61.60
2023-04-29T04:37:04.124Z,61.60
2023-04-29T04:39:32.201Z,61.60
2023-04-29T04:42:00.275Z,61.60
2023-04-29T04:44:28.356Z,61.60
2023-04-29T04:46:56.710Z,61.60
2023-04-29T04:49:26.289Z,61.80
2023-04-29T04:51:54.661Z,61.80
2023-04-29T04:54:22.750Z,61.80
2023-04-29T04:56:52.231Z,61.80
2023-04-29T04:59:21.032Z,61.90
2023-04-29T05:01:49.100Z,61.90
2023-04-29T05:04:17.435Z,62.00
2023-04-29T05:06:47.491Z,62.00
2023-04-29T05:09:15.653Z,62.10
2023-04-29T05:11:43.709Z,62.20
2023-04-29T05:14:11.776Z,62.30
2023-04-29T05:16:39.963Z,62.30
2023-04-29T05:19:09.617Z,62.30
2023-04-29T05:21:37.715Z,62.40
2023-04-29T05:24:07.696Z,62.30
2023-04-29T05:26:36.129Z,62.40
2023-04-29T05:29:04.220Z,62.40
2023-04-29T05:31:33.488Z,62.40
2023-04-29T05:34:01.551Z,62.40
2023-04-29T05:36:29.846Z,62.60
2023-04-29T05:38:57.934Z,62.60
2023-04-29T05:41:27.539Z,62.70
2023-04-29T05:43:55.658Z,62.70
2023-04-29T05:46:23.979Z,62.80
2023-04-29T05:48:52.162Z,62.80
2023-04-29T05:51:20.302Z,63.60
2023-04-29T05:53:48.336Z,62.90
2023-04-29T05:56:16.759Z,63.00
2023-04-29T05:58:46.197Z,63.00
2023-04-29T06:01:14.269Z,63.00
2023-04-29T06:03:42.925Z,63.00
2023-04-29T06:06:11.689Z,63.10
2023-04-29T06:08:39.947Z,63.20
2023-04-29T06:11:08.058Z,63.20
2023-04-29T06:13:36.236Z,63.30
2023-04-29T06:16:06.104Z,63.40
2023-04-29T06:18:34.192Z,63.50
2023-04-29T06:21:02.257Z,63.50
2023-04-29T06:23:32.079Z,63.40
2023-04-29T06:26:00.184Z,63.30
2023-04-29T06:28:29.838Z,63.20
2023-04-29T06:30:58.033Z,63.10
2023-04-29T06:33:28.243Z,62.90
2023-04-29T06:35:56.670Z,62.80
2023-04-29T06:38:24.754Z,62.80
2023-04-29T06:40:52.794Z,62.70
2023-04-29T06:43:21.054Z,62.80
2023-04-29T06:45:49.382Z,62.80
2023-04-29T06:48:17.860Z,62.90
2023-04-29T06:50:52.197Z,63.00
2023-04-29T06:53:20.503Z,63.10
2023-04-29T06:55:48.714Z,63.00
2023-04-29T06:58:17.291Z,62.90
2023-04-29T07:00:49.895Z,62.90
2023-04-29T07:03:19.445Z,63.20
2023-04-29T07:05:47.850Z,63.00
2023-04-29T07:08:17.390Z,63.00
2023-04-29T07:10:45.472Z,63.00
2023-04-29T07:13:13.493Z,63.20
2023-04-29T07:15:42.258Z,63.20
2023-04-29T07:18:10.544Z,63.10
2023-04-29T07:20:38.808Z,63.20
2023-04-29T07:23:06.930Z,63.90
2023-04-29T07:25:36.835Z,63.30
2023-04-29T07:28:04.990Z,63.30
2023-04-29T07:30:33.184Z,64.00
2023-04-29T07:33:01.661Z,63.30
2023-04-29T07:35:29.790Z,63.20
2023-04-29T07:37:58.179Z,63.20
2023-04-29T07:40:26.311Z,63.20
2023-04-29T07:42:55.721Z,63.30
2023-04-29T07:45:23.924Z,63.90
2023-04-29T07:47:52.095Z,63.00
2023-04-29T07:50:20.341Z,62.80
2023-04-29T07:52:48.390Z,62.70
2023-04-29T07:55:16.638Z,62.60
2023-04-29T07:57:44.677Z,62.80
2023-04-29T08:00:14.885Z,62.80
2023-04-29T08:02:44.053Z,62.70
2023-04-29T08:05:12.606Z,62.80
2023-04-29T08:07:40.809Z,62.70
2023-04-29T08:10:10.558Z,63.60
2023-04-29T08:12:38.638Z,62.90
2023-04-29T08:15:09.649Z,62.90
2023-04-29T08:17:39.512Z,62.80
2023-04-29T08:20:09.331Z,62.70
2023-04-29T08:22:37.595Z,62.50
2023-04-29T08:25:06.190Z,62.50
2023-04-29T08:27:34.281Z,62.60
2023-04-29T08:30:02.382Z,62.60
2023-04-29T08:32:30.566Z,62.50
2023-04-29T08:35:00.019Z,62.40
2023-04-29T08:37:28.359Z,62.40
2023-04-29T08:39:56.457Z,62.30
2023-04-29T08:42:35.243Z,62.10
2023-04-29T08:45:04.635Z,62.00
2023-04-29T08:47:33.792Z,61.80
2023-04-29T08:50:05.603Z,61.70
2023-04-29T08:52:33.887Z,61.50
2023-04-29T08:55:03.280Z,61.30
2023-04-29T08:57:39.512Z,61.30
2023-04-29T09:00:10.218Z,61.30
2023-04-29T09:02:44.784Z,61.10
2023-04-29T09:05:14.618Z,61.00
2023-04-29T09:07:43.525Z,60.80
2023-04-29T09:10:12.397Z,60.80
2023-04-29T09:12:40.447Z,60.90
2023-04-29T09:15:09.698Z,61.00
2023-04-29T09:17:42.167Z,61.10
2023-04-29T09:20:30.984Z,61.20
2023-04-29T09:23:01.356Z,61.20
2023-04-29T09:25:29.862Z,61.30
2023-04-29T09:27:58.044Z,61.30
2023-04-29T09:30:26.949Z,61.10
2023-04-29T09:33:07.597Z,61.20
2023-04-29T09:35:37.544Z,61.20
2023-04-29T09:38:14.051Z,61.20
2023-04-29T09:40:57.261Z,61.20
2023-04-29T09:43:26.960Z,61.10
2023-04-29T09:45:55.378Z,61.20
2023-04-29T09:48:23.645Z,61.20
2023-04-29T09:51:03.312Z,61.10
2023-04-29T09:53:32.605Z,61.00
2023-04-29T09:56:02.313Z,60.80
2023-04-29T09:58:34.178Z,60.90
2023-04-29T10:01:03.619Z,60.90
2023-04-29T10:03:35.002Z,61.00
2023-04-29T10:06:05.995Z,60.90
2023-04-29T10:08:35.443Z,61.00
2023-04-29T10:11:06.063Z,61.30
2023-04-29T10:13:38.245Z,61.50
2023-04-29T10:16:14.510Z,61.90
2023-04-29T10:18:45.923Z,62.10
2023-04-29T10:21:16.082Z,62.30
2023-04-29T10:23:45.103Z,62.60
2023-04-29T10:26:14.839Z,62.60
2023-04-29T10:28:45.868Z,62.70
2023-04-29T10:31:16.889Z,62.80
2023-04-29T10:33:47.252Z,63.00
2023-04-29T10:36:17.250Z,63.10
2023-04-29T10:38:50.800Z,63.30
2023-04-29T10:41:24.732Z,63.60
2023-04-29T10:43:53.606Z,63.90
2023-04-29T10:46:23.791Z,63.90
2023-04-29T10:48:55.526Z,64.70
2023-04-29T10:51:33.136Z,64.10
2023-04-29T10:54:08.551Z,64.30
2023-04-29T10:56:42.236Z,64.40
2023-04-29T10:59:14.521Z,64.30
2023-04-29T11:01:46.248Z,65.10
2023-04-29T11:04:14.715Z,64.30
2023-04-29T11:06:47.471Z,64.30
2023-04-29T11:09:20.702Z,64.40
2023-04-29T11:11:58.051Z,64.20
2023-04-29T11:14:27.878Z,64.00
2023-04-29T11:16:58.954Z,64.00
2023-04-29T11:19:32.445Z,64.00
2023-04-29T11:22:25.374Z,63.90
2023-04-29T11:24:58.850Z,64.10
2023-04-29T11:27:28.746Z,64.10
2023-04-29T11:29:59.242Z,63.80
2023-04-29T11:32:28.337Z,63.20
2023-04-29T11:34:56.874Z,62.60
2023-04-29T11:37:28.124Z,62.30
2023-04-29T11:40:01.220Z,61.90
2023-04-29T11:42:29.551Z,61.80
2023-04-29T11:44:59.504Z,61.70
2023-04-29T11:47:29.616Z,61.60
2023-04-29T11:50:05.119Z,61.50
2023-04-29T11:52:36.295Z,61.20
2023-04-29T11:55:04.550Z,61.10
2023-04-29T11:57:32.776Z,61.00
2023-04-29T12:00:01.217Z,60.90
2023-04-29T12:02:32.693Z,60.80
2023-04-29T12:05:02.445Z,60.80
2023-04-29T12:07:31.126Z,60.70
2023-04-29T12:10:00.650Z,60.70
2023-04-29T12:12:29.298Z,60.60
2023-04-29T12:14:57.582Z,60.50
2023-04-29T12:17:26.089Z,60.50
2023-04-29T12:19:54.458Z,60.50
2023-04-29T12:22:22.645Z,60.40
2023-04-29T12:24:54.583Z,60.30
2023-04-29T12:27:24.780Z,60.30
2023-04-29T12:29:53.648Z,60.20
2023-04-29T12:32:24.822Z,60.20
2023-04-29T12:34:54.568Z,60.20
2023-04-29T12:37:23.716Z,60.10
2023-04-29T12:39:52.848Z,60.20
2023-04-29T12:42:20.955Z,60.20
2023-04-29T12:44:50.494Z,60.00
2023-04-29T12:47:18.830Z,60.00
2023-04-29T12:49:49.247Z,60.00
2023-04-29T12:52:17.366Z,60.10
2023-04-29T12:54:45.736Z,60.10
2023-04-29T12:57:14.462Z,60.10
2023-04-29T12:59:42.598Z,60.30
2023-04-29T13:02:12.470Z,60.40
2023-04-29T13:04:40.974Z,60.50
2023-04-29T13:07:09.869Z,60.30
2023-04-29T13:09:41.500Z,60.30
2023-04-29T13:12:09.749Z,60.40
2023-04-29T13:14:37.967Z,60.40
2023-04-29T13:17:06.740Z,60.60
2023-04-29T13:19:50.344Z,60.50
2023-04-29T13:22:19.627Z,60.80
2023-04-29T13:24:47.788Z,60.70
2023-04-29T13:27:15.961Z,60.70
2023-04-29T13:29:44.308Z,60.60
2023-04-29T13:32:12.666Z,60.40
2023-04-29T13:34:43.435Z,60.30
2023-04-29T13:37:11.897Z,60.30
2023-04-29T13:39:40.084Z,60.10
2023-04-29T13:42:08.969Z,59.90
2023-04-29T13:44:51.113Z,59.80
2023-04-29T13:47:26.215Z,59.70
2023-04-29T13:53:18.022Z,59.60
2023-04-29T13:56:11.510Z,59.60
2023-04-29T14:03:07.568Z,59.40
2023-04-29T14:05:37.588Z,59.40
2023-04-29T14:08:06.402Z,59.30
2023-04-29T14:10:34.605Z,59.20
2023-04-29T14:13:03.186Z,59.30
2023-04-29T14:15:31.354Z,59.40
2023-04-29T14:17:59.504Z,59.20
2023-04-29T14:20:27.685Z,59.10
2023-04-29T14:22:57.154Z,59.10
2023-04-29T14:25:26.785Z,59.10
2023-04-29T14:27:56.707Z,59.00
2023-04-29T14:30:25.056Z,58.90
2023-04-29T14:32:53.230Z,58.90
2023-04-29T14:35:21.524Z,58.80
2023-04-29T14:37:50.521Z,58.90
2023-04-29T14:40:20.002Z,58.90
2023-04-29T14:42:48.206Z,58.90
2023-04-29T14:45:17.148Z,59.00
2023-04-29T14:47:45.418Z,58.90
2023-04-29T14:50:13.596Z,58.90
2023-04-29T14:52:41.694Z,58.80
2023-04-29T14:55:10.093Z,58.70
2023-04-29T14:57:39.528Z,58.80
2023-04-29T15:00:09.103Z,58.90
2023-04-29T15:02:37.249Z,59.00
2023-04-29T15:05:05.582Z,59.00
2023-04-29T15:07:34.153Z,58.90
2023-04-29T15:10:02.406Z,59.00
2023-04-29T15:12:30.615Z,59.00
2023-04-29T15:15:00.023Z,58.90
2023-04-29T15:17:28.602Z,58.90
2023-04-29T15:19:56.670Z,58.90
2023-04-29T15:22:24.737Z,58.80
2023-04-29T15:24:53.045Z,58.80
2023-04-29T15:27:21.474Z,58.90
2023-04-29T15:29:49.543Z,59.00
2023-04-29T15:32:19.435Z,59.00
2023-04-29T15:34:47.656Z,59.10
2023-04-29T15:37:15.780Z,59.20
2023-04-29T15:39:44.029Z,59.20
2023-04-29T15:42:12.164Z,59.10
2023-04-29T15:44:40.214Z,59.20
2023-04-29T15:47:08.290Z,59.20
2023-04-29T15:49:38.232Z,59.20
2023-04-29T15:52:06.457Z,59.20
2023-04-29T15:54:34.540Z,59.30
2023-04-29T15:57:03.546Z,59.30
2023-04-29T15:59:31.675Z,59.40
2023-04-29T16:01:59.922Z,59.50
2023-04-29T16:04:28.003Z,59.50
2023-04-29T16:06:57.458Z,59.60
2023-04-29T16:09:25.981Z,59.70
2023-04-29T16:11:54.066Z,59.70
2023-04-29T16:14:22.159Z,59.70
2023-04-29T16:16:50.443Z,59.80
2023-04-29T16:19:18.838Z,59.80
2023-04-29T16:21:46.925Z,59.80
2023-04-29T16:24:16.971Z,59.80
2023-04-29T16:26:45.170Z,60.00
2023-04-29T16:29:13.537Z,59.90
2023-04-29T16:31:41.686Z,60.10
2023-04-29T16:34:09.848Z,60.20
2023-04-29T16:36:37.909Z,60.20
2023-04-29T16:39:06.234Z,60.40
2023-04-29T16:41:37.392Z,60.50
2023-04-29T16:44:05.709Z,60.60
2023-04-29T16:46:34.316Z,60.60
2023-04-29T16:49:02.994Z,60.70
2023-04-29T16:51:33.429Z,60.70
2023-04-29T16:54:01.795Z,60.70
2023-04-29T16:56:29.877Z,60.80
2023-04-29T16:58:59.321Z,60.90
2023-04-29T17:01:27.444Z,60.90
2023-04-29T17:03:56.369Z,61.10
2023-04-29T17:06:25.542Z,61.20
2023-04-29T17:08:53.830Z,61.20
2023-04-29T17:11:21.945Z,61.30
2023-04-29T17:13:50.673Z,61.30
2023-04-29T17:16:20.217Z,61.20
2023-04-29T17:18:48.365Z,61.30
2023-04-29T17:21:16.500Z,61.50
2023-04-29T17:23:44.580Z,61.40
2023-04-29T17:26:12.658Z,61.50
2023-04-29T17:28:40.802Z,61.50
2023-04-29T17:31:08.976Z,61.60
2023-04-29T17:33:39.867Z,61.60
2023-04-29T17:36:08.306Z,61.60
2023-04-29T17:38:36.615Z,61.70
2023-04-29T17:41:04.737Z,61.80
2023-04-29T17:43:35.492Z,61.90
2023-04-29T17:46:03.866Z,61.80
2023-04-29T17:48:32.504Z,61.80
2023-04-29T17:51:02.029Z,61.90
2023-04-29T17:53:30.071Z,62.10
2023-04-29T17:55:58.149Z,62.00
2023-04-29T17:58:28.851Z,62.10
2023-04-29T18:00:57.238Z,62.20
2023-04-29T18:03:27.198Z,62.10
2023-04-29T18:05:55.739Z,62.20
2023-04-29T18:08:25.315Z,62.10
2023-04-29T18:10:53.397Z,62.20
2023-04-29T18:13:21.482Z,62.30
2023-04-29T18:15:49.853Z,62.30
2023-04-29T18:18:17.913Z,62.30
2023-04-29T18:20:46.034Z,62.30
2023-04-29T18:23:14.398Z,62.40
2023-04-29T18:25:44.005Z,62.50
2023-04-29T18:28:23.452Z,62.60
2023-04-29T18:30:52.966Z,62.60
2023-04-29T18:33:21.445Z,62.50
2023-04-29T18:35:49.702Z,62.50
2023-04-29T18:38:17.884Z,62.70
2023-04-29T18:40:48.370Z,62.70
2023-04-29T18:43:18.195Z,62.80
2023-04-29T18:45:46.641Z,62.80
2023-04-29T18:48:15.052Z,62.90
2023-04-29T18:50:43.572Z,63.60
2023-04-29T18:53:11.840Z,63.00
2023-04-29T18:55:39.928Z,63.10
2023-04-29T18:58:09.624Z,63.10
2023-04-29T19:00:37.772Z,63.30
2023-04-29T19:03:06.532Z,63.20
2023-04-29T19:05:34.744Z,63.20
2023-04-29T19:08:02.845Z,63.30
2023-04-29T19:10:30.996Z,63.40
2023-04-29T19:12:59.073Z,63.30
2023-04-29T19:15:28.609Z,63.50
2023-04-29T19:17:56.995Z,63.50
2023-04-29T19:20:25.602Z,63.60
2023-04-29T19:22:54.049Z,63.70
2023-04-29T19:25:22.248Z,63.90
2023-04-29T19:27:51.033Z,64.00
2023-04-29T19:30:19.242Z,64.10
2023-04-29T19:32:48.777Z,64.20
2023-04-29T19:35:17.010Z,64.40
2023-04-29T19:37:45.337Z,64.50
2023-04-29T19:40:13.641Z,64.60
2023-04-29T19:42:41.716Z,64.80
2023-04-29T19:45:12.539Z,65.00
2023-04-29T19:47:40.744Z,65.00
2023-04-29T19:50:10.851Z,65.10
2023-04-29T19:52:39.057Z,65.20
2023-04-29T19:55:08.919Z,65.30
2023-04-29T19:57:38.353Z,65.50
2023-04-29T20:00:08.614Z,65.50
2023-04-29T20:02:37.092Z,65.60
2023-04-29T20:05:05.917Z,65.80
2023-04-29T20:07:35.394Z,65.90
2023-04-29T20:10:03.462Z,66.00
2023-04-29T20:12:31.585Z,66.00
2023-04-29T20:14:59.997Z,66.10
2023-04-29T20:17:28.322Z,66.30
2023-04-29T20:19:56.573Z,66.40
2023-04-29T20:22:24.937Z,66.40
2023-04-29T20:24:54.383Z,66.50
2023-04-29T20:27:22.447Z,66.60
2023-04-29T20:29:50.509Z,66.60
2023-04-29T20:32:18.893Z,66.80
2023-04-29T20:34:46.960Z,66.90
2023-04-29T20:37:15.058Z,66.90
2023-04-29T20:39:43.159Z,67.00
2023-04-29T20:42:12.782Z,67.10
2023-04-29T20:44:41.023Z,67.30
2023-04-29T20:47:09.637Z,67.40
2023-04-29T20:49:37.735Z,67.40
2023-04-29T20:52:07.343Z,67.40
2023-04-29T20:54:35.670Z,67.50
2023-04-29T20:57:05.634Z,67.50
2023-04-29T20:59:35.292Z,67.60
2023-04-29T21:02:03.352Z,67.70
2023-04-29T21:04:31.702Z,67.70
2023-04-29T21:06:59.813Z,67.80
2023-04-29T21:09:27.926Z,67.80
2023-04-29T21:11:57.911Z,67.90
2023-04-29T21:14:26.261Z,68.00
2023-04-29T21:16:56.045Z,67.90
2023-04-29T21:19:24.133Z,68.00
2023-04-29T21:21:52.358Z,67.90
2023-04-29T21:24:20.416Z,68.00
2023-04-29T21:26:50.259Z,68.00
2023-04-29T21:29:19.850Z,68.10
2023-04-29T21:31:48.118Z,68.10
2023-04-29T21:34:17.600Z,68.20
2023-04-29T21:36:45.706Z,68.20
2023-04-29T21:39:13.801Z,68.10
2023-04-29T21:41:43.973Z,68.20
2023-04-29T21:44:13.446Z,68.20
2023-04-29T21:46:41.893Z,68.20
2023-04-29T21:49:10.253Z,68.10
2023-04-29T21:51:39.759Z,68.10
2023-04-29T21:54:08.573Z,68.20
2023-04-29T21:56:36.908Z,68.20
2023-04-29T21:59:05.116Z,68.20
2023-04-29T22:01:49.317Z,68.20
2023-04-29T22:04:17.575Z,68.20
2023-04-29T22:06:47.127Z,68.20
2023-04-29T22:09:16.168Z,68.10
2023-04-29T22:11:44.984Z,68.20
2023-04-29T22:14:13.033Z,68.20
2023-04-29T22:16:41.269Z,68.20
2023-04-29T22:19:09.439Z,68.30
2023-04-29T22:21:38.153Z,68.30
2023-04-29T22:24:07.804Z,68.30
2023-04-29T22:26:35.944Z,68.40
2023-04-29T22:29:04.524Z,68.40
2023-04-29T22:31:32.623Z,68.40
2023-04-29T22:34:00.690Z,68.40
2023-04-29T22:36:28.761Z,68.50
2023-04-29T22:38:56.847Z,68.50
2023-04-29T22:41:27.008Z,68.50
2023-04-29T22:43:57.575Z,68.50
2023-04-29T22:46:26.294Z,68.60
2023-04-29T22:48:54.418Z,68.60
2023-04-29T22:51:22.587Z,68.60
2023-04-29T22:53:50.634Z,68.50
2023-04-29T22:56:18.809Z,68.60
2023-04-29T22:58:48.249Z,68.60
2023-04-29T23:01:16.356Z,68.60
2023-04-29T23:03:44.403Z,68.60
2023-04-29T23:06:12.623Z,68.60
2023-04-29T23:08:40.747Z,68.70
2023-04-29T23:11:08.970Z,68.70
2023-04-29T23:13:37.042Z,68.60
2023-04-29T23:16:09.256Z,68.60
2023-04-29T23:18:38.761Z,68.70
2023-04-29T23:21:07.215Z,68.70
2023-04-29T23:23:35.344Z,68.70
2023-04-29T23:26:03.489Z,68.70
2023-04-29T23:28:31.578Z,68.80
2023-04-29T23:30:59.697Z,68.80
2023-04-29T23:33:29.172Z,68.80
2023-04-29T23:35:57.266Z,68.80
2023-04-29T23:38:25.448Z,68.90
2023-04-29T23:40:53.538Z,68.90
2023-04-29T23:43:21.991Z,68.90
2023-04-29T23:45:50.101Z,68.90
2023-04-29T23:48:18.173Z,69.00
2023-04-29T23:50:47.799Z,68.90
2023-04-29T23:53:15.942Z,69.00
2023-04-29T23:55:44.044Z,69.00
2023-04-29T23:58:12.104Z,68.90
